Time;durP1;ratioP1;P1;durP2;ratioP2;P2;SDS_P1;SDS_P2;PMS_P1;PMS_P2;Temp;Humidity;BMP_temperature;BMP_pressure;BME280_temperature;BME280_humidity;BME280_pressure;Samples;Min_cycle;Max_cycle;Signal;HPM_P1;HPM_P2
2022/05/20 00:00:31;;;;;;;;;1.75;1.75;;;;;23.02;46.08;101436.19;5080066;27;45456;-82
2022/05/20 00:02:56;;;;;;;;;1.00;1.00;;;;;23.06;45.86;101450.28;5084924;27;45533;-83
2022/05/20 00:05:23;;;;;;;;;1.25;1.00;;;;;23.04;46.32;101442.31;5080093;27;46074;-82
2022/05/20 00:07:48;;;;;;;;;2.00;2.00;;;;;22.94;45.66;101427.88;5092401;27;45569;-82
2022/05/20 00:10:15;;;;;;;;;3.00;2.00;;;;;23.01;46.22;101437.16;5092393;27;45418;-84
2022/05/20 00:12:41;;;;;;;;;2.00;1.00;;;;;23.00;46.01;101426.47;5088956;27;45370;-82
2022/05/20 00:15:09;;;;;;;;;2.25;1.25;;;;;22.96;45.44;101423.16;5082074;27;45443;-82
2022/05/20 00:17:35;;;;;;;;;1.00;1.00;;;;;22.95;45.18;101430.44;5085445;27;45470;-82
2022/05/20 00:20:02;;;;;;;;;3.00;3.00;;;;;22.88;44.91;101412.19;5084301;27;46241;-82
2022/05/20 00:22:28;;;;;;;;;2.00;2.00;;;;;22.91;45.38;101426.31;5081145;27;45534;-81
2022/05/20 00:27:37;;;;;;;;;0.00;0.00;;;;;22.91;44.96;101410.03;5088156;27;45574;-80
2022/05/20 00:30:02;;;;;;;;;2.00;1.00;;;;;22.86;44.52;101398.75;5086645;27;46032;-82
2022/05/20 00:32:28;;;;;;;;;1.25;1.25;;;;;22.90;44.44;101421.91;5084505;27;45581;-82
2022/05/20 00:34:53;;;;;;;;;1.00;1.00;;;;;22.82;44.38;101410.91;5086248;27;45240;-81
2022/05/20 00:37:18;;;;;;;;;2.75;2.00;;;;;22.80;43.98;101409.34;5084497;27;46025;-82
2022/05/20 00:39:44;;;;;;;;;1.00;1.00;;;;;22.85;44.58;101423.34;5084960;27;45973;-80
2022/05/20 00:42:13;;;;;;;;;2.50;0.75;;;;;22.85;43.62;101421.50;5091209;27;45427;-82
2022/05/20 00:44:38;;;;;;;;;0.75;0.75;;;;;22.81;44.15;101405.66;5089500;27;45361;-82
2022/05/20 00:47:03;;;;;;;;;1.00;1.00;;;;;22.74;43.36;101400.81;5088410;27;45519;-81
2022/05/20 00:49:29;;;;;;;;;1.75;1.75;;;;;22.75;43.60;101401.66;5089752;27;45417;-82
2022/05/20 00:51:54;;;;;;;;;0.00;0.00;;;;;22.83;43.57;101412.66;5091572;27;45442;-82
2022/05/20 00:54:24;;;;;;;;;2.25;0.00;;;;;22.83;42.83;101412.66;5091929;27;45588;-82
2022/05/20 00:56:59;;;;;;;;;0.00;0.00;;;;;22.76;43.29;101411.53;5092335;27;45730;-82
2022/05/20 00:59:28;;;;;;;;;2.00;0.00;;;;;22.78;42.86;101398.66;5093907;27;45822;-82
2022/05/20 01:01:57;;;;;;;;;1.25;1.25;;;;;22.72;43.25;101391.97;5085237;27;45492;-81
2022/05/20 01:04:24;;;;;;;;;0.00;0.00;;;;;22.71;43.02;101392.97;5083304;27;45417;-81
2022/05/20 01:06:52;;;;;;;;;1.50;0.75;;;;;22.68;43.30;101401.44;5094800;27;45401;-81
2022/05/20 01:09:17;;;;;;;;;3.00;1.00;;;;;22.74;42.84;101408.09;5093966;27;46262;-81
2022/05/20 01:11:43;;;;;;;;;0.00;0.00;;;;;22.72;43.32;101405.53;5084595;27;52594;-82
2022/05/20 01:14:10;;;;;;;;;2.00;1.00;;;;;22.71;42.90;101397.56;5088510;27;45543;-80
2022/05/20 01:16:36;;;;;;;;;2.50;2.00;;;;;22.70;42.92;101388.53;5084732;27;45534;-82
2022/05/20 01:19:07;;;;;;;;;1.00;1.00;;;;;22.70;43.05;101384.97;5087553;27;47268;-81
2022/05/20 01:21:32;;;;;;;;;0.25;0.25;;;;;22.67;43.41;101374.41;5090574;27;45482;-82
2022/05/20 01:24:03;;;;;;;;;3.00;3.00;;;;;22.65;43.07;101369.13;5081635;27;45421;-82
2022/05/20 01:26:28;;;;;;;;;1.25;1.25;;;;;22.66;42.79;101360.00;5084985;27;45343;-81
2022/05/20 01:28:53;;;;;;;;;0.00;0.00;;;;;22.39;43.39;101313.81;5087940;27;45873;-80
2022/05/20 01:31:19;;;;;;;;;2.50;1.00;;;;;22.62;43.29;101365.88;5092450;27;45405;-80
2022/05/20 01:33:47;;;;;;;;;1.00;1.00;;;;;22.60;43.02;101362.44;5087983;27;45468;-80
2022/05/20 01:36:19;;;;;;;;;1.00;1.00;;;;;22.57;43.29;101354.63;5102655;27;45607;-80
2022/05/20 01:38:45;;;;;;;;;2.00;2.00;;;;;22.53;43.79;101349.47;5089001;27;46427;-80
2022/05/20 01:41:25;;;;;;;;;1.25;1.25;;;;;22.53;43.49;101343.19;5089344;27;45445;-81
2022/05/20 01:44:29;;;;;;;;;0.25;0.25;;;;;22.51;43.91;101351.50;5090108;27;45520;-81
2022/05/20 01:47:19;;;;;;;;;4.00;1.50;;;;;22.41;43.95;101344.38;5082203;27;45512;-81
2022/05/20 01:50:00;;;;;;;;;1.00;0.00;;;;;22.41;44.26;101336.25;5086335;27;47234;-81
2022/05/20 01:52:28;;;;;;;;;0.00;0.00;;;;;22.43;44.02;101328.81;5088872;27;45475;-81
2022/05/20 01:55:23;;;;;;;;;2.75;2.00;;;;;22.40;43.92;101323.69;5106151;27;45420;-82
2022/05/20 01:58:08;;;;;;;;;1.25;1.25;;;;;22.37;44.17;101334.81;5089916;27;45731;-82
2022/05/20 02:00:35;;;;;;;;;0.75;0.75;;;;;22.35;43.95;101331.44;5089934;27;46673;-81
2022/05/20 02:03:11;;;;;;;;;1.50;1.00;;;;;22.33;44.12;101318.00;5087211;27;45524;-81
2022/05/20 02:05:43;;;;;;;;;1.00;1.00;;;;;22.34;44.73;101325.13;5090374;27;45454;-81
2022/05/20 02:08:33;;;;;;;;;0.50;0.50;;;;;22.31;44.22;101317.28;5087800;27;45392;-82
2022/05/20 02:11:08;;;;;;;;;2.00;0.00;;;;;22.27;44.80;101315.88;5083927;27;46779;-81
2022/05/20 02:13:38;;;;;;;;;0.00;0.00;;;;;22.26;44.70;101312.31;5087359;27;45444;-81
2022/05/20 02:16:12;;;;;;;;;1.50;1.00;;;;;22.25;44.48;101298.91;5087266;27;45338;-82
2022/05/20 02:18:53;;;;;;;;;0.00;0.00;;;;;22.20;44.77;101283.09;5093820;27;45491;-81
2022/05/20 02:21:24;;;;;;;;;1.75;1.75;;;;;22.24;44.62;101299.91;5086657;27;45503;-81
2022/05/20 02:23:55;;;;;;;;;1.00;1.00;;;;;22.12;45.03;101285.63;5089547;27;45495;-81
2022/05/20 02:26:24;;;;;;;;;1.00;1.00;;;;;22.17;44.65;101290.63;5084981;27;45377;-80
2022/05/20 02:28:58;;;;;;;;;1.75;0.75;;;;;22.20;44.80;101290.31;5090568;27;45302;-81
2022/05/20 02:31:37;;;;;;;;;1.00;1.00;;;;;22.20;45.10;101291.22;5082959;27;48152;-81
2022/05/20 02:34:02;;;;;;;;;2.00;2.00;;;;;22.11;45.00;101292.91;5077342;27;45502;-81
2022/05/20 02:36:34;;;;;;;;;2.00;2.00;;;;;22.20;45.03;101293.94;5086195;27;45441;-81
2022/05/20 02:39:02;;;;;;;;;1.75;1.75;;;;;22.18;45.18;101290.47;5092188;27;45534;-81
2022/05/20 02:41:28;;;;;;;;;1.00;1.00;;;;;22.11;45.10;101282.06;5092624;27;45417;-81
2022/05/20 02:43:54;;;;;;;;;2.00;1.00;;;;;22.13;45.40;101287.34;5084893;27;45271;-81
2022/05/20 02:46:19;;;;;;;;;2.75;1.50;;;;;22.14;45.64;101291.75;5084422;27;45400;-81
2022/05/20 02:48:44;;;;;;;;;1.00;1.00;;;;;22.15;45.96;101292.63;5085159;27;45308;-82
2022/05/20 02:51:10;;;;;;;;;3.75;3.75;;;;;22.14;45.60;101283.63;5094125;27;51435;-82
2022/05/20 02:53:35;;;;;;;;;1.75;1.75;;;;;22.10;45.66;101280.38;5091215;27;46103;-81
2022/05/20 02:56:03;;;;;;;;;2.00;2.00;;;;;22.13;46.26;101284.66;5094635;27;45295;-81
2022/05/20 03:04:10;;;;;;;;;2.00;2.00;;;;;22.11;46.42;101283.94;5093391;27;45315;-81
2022/05/20 03:06:46;;;;;;;;;1.00;1.00;;;;;22.10;46.55;101274.94;5091719;27;45316;-80
2022/05/20 03:09:13;;;;;;;;;2.25;2.25;;;;;22.10;46.24;101277.66;5085368;27;45587;-82
2022/05/20 03:11:40;;;;;;;;;2.00;1.75;;;;;22.10;46.65;101277.66;5085709;27;46454;-81
2022/05/20 03:14:08;;;;;;;;;1.00;1.00;;;;;22.09;46.59;101284.06;5090144;27;45502;-82
2022/05/20 03:16:34;;;;;;;;;2.75;1.75;;;;;22.06;46.41;101280.81;5089032;27;45522;-80
2022/05/20 03:19:00;;;;;;;;;1.75;1.75;;;;;22.11;46.64;101284.78;5096072;27;45468;-81
2022/05/20 03:21:25;;;;;;;;;2.50;2.00;;;;;22.06;46.73;101276.25;5095407;27;46039;-81
2022/05/20 03:23:52;;;;;;;;;1.00;1.00;;;;;22.10;46.77;101288.50;5107041;27;45691;-81
2022/05/20 03:26:18;;;;;;;;;0.75;0.75;;;;;21.99;46.35;101263.44;5103340;27;45462;-81
2022/05/20 03:28:45;;;;;;;;;1.50;1.00;;;;;22.07;46.19;101287.94;5085104;27;45469;-81
2022/05/20 03:31:11;;;;;;;;;1.00;1.00;;;;;21.90;46.86;101257.03;5080475;27;45460;-81
2022/05/20 03:33:38;;;;;;;;;1.75;1.75;;;;;21.99;47.00;101275.13;5080203;27;46022;-81
2022/05/20 03:36:04;;;;;;;;;1.25;1.25;;;;;22.03;46.75;101284.69;5094743;27;45373;-81
2022/05/20 03:38:30;;;;;;;;;1.75;1.00;;;;;21.99;46.89;101287.84;5083369;27;45552;-81
2022/05/20 03:40:56;;;;;;;;;2.25;2.25;;;;;21.89;46.63;101260.75;5080294;27;45691;-81
2022/05/20 03:43:22;;;;;;;;;1.00;1.00;;;;;21.98;46.52;101269.84;5080292;27;45479;-80
2022/05/20 03:45:48;;;;;;;;;4.00;2.25;;;;;21.89;46.97;101261.59;5078848;27;45362;-81
2022/05/20 03:48:13;;;;;;;;;3.50;2.25;;;;;21.93;46.27;101272.97;5082034;27;45488;-81
2022/05/20 03:50:39;;;;;;;;;1.00;1.00;;;;;21.92;46.59;101276.72;5082819;27;46162;-81
2022/05/20 03:53:04;;;;;;;;;1.00;1.00;;;;;21.79;46.50;101247.22;5082896;27;45563;-81
2022/05/20 03:55:30;;;;;;;;;1.50;1.00;;;;;21.90;46.65;101266.00;5081993;27;45589;-81
2022/05/20 03:57:55;;;;;;;;;1.00;1.00;;;;;21.90;46.74;101257.88;5078790;27;45348;-81
2022/05/20 04:00:21;;;;;;;;;1.00;1.00;;;;;21.89;47.09;101263.47;5077958;27;46790;-81
2022/05/20 04:02:46;;;;;;;;;1.00;1.00;;;;;21.86;47.14;101251.06;5087199;27;45513;-82
2022/05/20 04:05:12;;;;;;;;;1.25;1.25;;;;;21.83;47.48;101250.47;5089062;27;45672;-82
2022/05/20 04:07:38;;;;;;;;;3.00;3.00;;;;;21.75;47.11;101236.81;5084156;27;45276;-82
2022/05/20 04:10:08;;;;;;;;;1.00;1.00;;;;;21.73;47.70;101236.94;5095772;27;46498;-82
2022/05/20 04:12:43;;;;;;;;;2.00;2.00;;;;;21.79;47.51;101247.22;5097068;27;45479;-82
2022/05/20 04:15:12;;;;;;;;;1.00;1.00;;;;;21.77;47.26;101251.94;5094792;27;46620;-82
2022/05/20 04:17:37;;;;;;;;;1.50;1.25;;;;;21.72;47.59;101246.09;5095093;27;45396;-82
2022/05/20 04:20:05;;;;;;;;;2.25;1.50;;;;;21.74;47.40;101235.94;5095375;27;45483;-82
2022/05/20 04:22:34;;;;;;;;;3.00;1.75;;;;;21.73;47.52;101239.66;5095470;27;45516;-82
2022/05/20 04:24:59;;;;;;;;;1.00;1.00;;;;;21.64;47.58;101237.81;5095599;27;45508;-82
2022/05/20 04:27:27;;;;;;;;;1.25;1.25;;;;;21.68;47.98;101239.25;5097857;27;45414;-82
2022/05/20 04:29:53;;;;;;;;;1.00;1.00;;;;;21.67;48.24;101251.06;5094369;27;45290;-82
2022/05/20 04:32:18;;;;;;;;;1.75;1.75;;;;;21.54;48.38;101248.69;5094927;27;45560;-82
2022/05/20 04:34:44;;;;;;;;;3.50;2.50;;;;;21.53;47.96;101265.97;5094995;27;45744;-82
2022/05/20 04:37:09;;;;;;;;;3.00;2.00;;;;;21.47;48.69;101236.72;5095513;27;45631;-81
2022/05/20 04:39:34;;;;;;;;;1.50;1.50;;;;;21.49;48.42;101235.56;5096018;27;46002;-82
2022/05/20 04:47:30;;;;;;;;;3.75;3.00;;;;;21.61;48.68;101271.50;5093118;27;45511;-81
2022/05/20 04:49:56;;;;;;;;;3.50;1.50;;;;;21.61;48.65;101268.78;5094238;27;45462;-82
2022/05/20 04:52:22;;;;;;;;;3.75;2.25;;;;;21.62;48.96;101270.50;5094534;27;45566;-82
2022/05/20 04:54:50;;;;;;;;;1.75;1.75;;;;;21.64;48.78;101267.63;5095024;27;45539;-82
2022/05/20 04:57:24;;;;;;;;;3.50;2.00;;;;;21.65;48.87;101281.06;5098020;27;45449;-82
2022/05/20 04:59:51;;;;;;;;;2.00;2.00;;;;;21.68;49.02;101293.44;5094560;27;45483;-82
2022/05/20 05:02:17;;;;;;;;;2.00;2.00;;;;;21.58;49.22;101277.22;5094001;27;45282;-82
2022/05/20 05:04:43;;;;;;;;;2.00;2.00;;;;;21.72;49.04;101291.28;5093520;27;45644;-82
2022/05/20 05:07:11;;;;;;;;;3.50;3.50;;;;;21.73;49.20;101283.03;5110309;27;45318;-82
2022/05/20 05:09:41;;;;;;;;;1.25;1.25;;;;;21.71;49.75;101290.44;5094295;27;46148;-82
2022/05/20 05:12:08;;;;;;;;;3.00;3.00;;;;;21.64;49.80;101292.88;5095954;27;45378;-82
2022/05/20 05:14:39;;;;;;;;;5.00;2.00;;;;;21.70;49.74;101302.31;5094415;27;46845;-82
2022/05/20 05:17:07;;;;;;;;;2.25;2.25;;;;;21.69;50.08;101298.75;5091908;27;45612;-81
2022/05/20 05:19:35;;;;;;;;;2.25;2.25;;;;;21.59;50.13;101283.47;5104486;27;46377;-82
2022/05/20 05:22:01;;;;;;;;;2.75;2.75;;;;;21.60;49.86;101279.75;5094317;27;45420;-82
2022/05/20 05:24:27;;;;;;;;;5.00;3.00;;;;;21.58;49.93;101285.34;5097043;27;45621;-82
2022/05/20 05:26:52;;;;;;;;;4.25;3.00;;;;;21.58;50.26;101270.94;5092114;27;45531;-82
2022/05/20 05:29:17;;;;;;;;;4.00;2.00;;;;;21.60;50.24;101280.63;5093826;27;45399;-82
2022/05/20 05:31:43;;;;;;;;;2.00;2.00;;;;;21.55;50.52;101269.38;5093001;27;45568;-82
2022/05/20 05:34:10;;;;;;;;;3.50;3.50;;;;;21.64;50.63;101287.44;5094592;27;45597;-82
2022/05/20 05:36:35;;;;;;;;;4.50;3.75;;;;;21.59;51.09;101269.94;5095621;27;45463;-83
2022/05/20 05:39:01;;;;;;;;;2.75;2.00;;;;;21.65;51.22;101280.19;5095316;27;45431;-82
2022/05/20 05:41:26;;;;;;;;;4.00;4.00;;;;;21.69;51.11;101278.88;5094116;27;45447;-82
2022/05/20 05:43:52;;;;;;;;;4.00;4.00;;;;;21.62;51.09;101275.94;5092647;27;45315;-82
2022/05/20 05:46:18;;;;;;;;;4.00;4.00;;;;;21.61;51.33;101257.09;5107320;27;45388;-82
2022/05/20 05:48:43;;;;;;;;;3.00;1.25;;;;;21.57;51.12;101251.09;5094010;27;46309;-82
2022/05/20 05:51:09;;;;;;;;;4.00;3.50;;;;;21.63;51.06;101250.53;5096292;27;45310;-82
2022/05/20 05:53:34;;;;;;;;;3.50;3.50;;;;;21.64;51.33;101243.25;5101485;27;45460;-82
2022/05/20 05:56:02;;;;;;;;;3.75;3.00;;;;;21.63;51.41;101228.00;5094406;27;45403;-82
2022/05/20 05:58:29;;;;;;;;;2.50;1.50;;;;;21.63;51.38;101209.03;5092448;27;48468;-82
2022/05/20 06:00:55;;;;;;;;;2.00;2.00;;;;;21.66;51.79;101214.16;5093625;27;45376;-82
2022/05/20 06:03:21;;;;;;;;;4.75;3.00;;;;;21.42;51.69;101218.19;5094755;27;45326;-82
2022/05/20 06:05:47;;;;;;;;;2.25;2.25;;;;;21.58;51.85;101236.56;5092493;27;45469;-82
2022/05/20 06:08:14;;;;;;;;;4.25;4.25;;;;;21.68;52.12;101261.78;5104166;27;47263;-82
2022/05/20 06:10:40;;;;;;;;;4.00;4.00;;;;;21.71;52.41;101266.06;5089419;27;45672;-82
2022/05/20 06:13:06;;;;;;;;;4.00;4.00;;;;;21.71;53.16;101279.59;5093797;27;45264;-82
2022/05/20 06:15:31;;;;;;;;;5.00;5.00;;;;;21.72;53.58;101277.75;5094797;27;45456;-82
2022/05/20 06:17:57;;;;;;;;;6.25;5.00;;;;;21.74;54.76;101278.47;5094154;27;46896;-82
2022/05/20 06:20:24;;;;;;;;;5.25;4.75;;;;;21.70;55.42;101283.31;5097294;27;45517;-82
2022/05/20 06:22:50;;;;;;;;;4.50;4.00;;;;;21.67;56.89;101284.47;5097577;27;45485;-81
2022/05/20 06:25:16;;;;;;;;;5.00;5.00;;;;;21.74;57.71;101295.56;5097537;27;45508;-81
2022/05/20 06:27:42;;;;;;;;;6.50;6.50;;;;;21.70;59.08;101272.50;5097414;27;46351;-81
2022/05/20 06:30:10;;;;;;;;;8.00;5.50;;;;;21.63;59.57;101244.25;5096884;27;45373;-80
2022/05/20 06:32:36;;;;;;;;;5.25;4.25;;;;;21.59;58.97;101234.69;5094927;27;45415;-81
2022/05/20 06:40:44;;;;;;;;;4.00;4.00;;;;;21.41;60.63;101158.75;5097140;27;45581;-80
2022/05/20 06:43:12;;;;;;;;;6.50;5.25;;;;;21.35;60.54;101160.16;5096674;27;45687;-80
2022/05/20 06:45:38;;;;;;;;;5.75;5.50;;;;;21.24;60.66;101115.16;5097435;27;45345;-81
2022/05/20 06:48:03;;;;;;;;;6.75;4.50;;;;;21.16;60.81;101112.28;5097769;27;46079;-80
2022/05/20 06:50:28;;;;;;;;;6.25;4.75;;;;;21.22;60.64;101165.03;5096812;27;45483;-81
2022/05/20 06:52:54;;;;;;;;;6.00;6.00;;;;;21.09;61.58;101116.59;5096996;27;45395;-81
2022/05/20 06:55:19;;;;;;;;;7.50;5.25;;;;;21.08;61.26;101168.19;5097203;27;45379;-82
2022/05/20 06:57:44;;;;;;;;;8.00;6.25;;;;;21.12;61.01;101129.84;5096362;27;46769;-82
2022/05/20 07:00:12;;;;;;;;;6.00;5.00;;;;;21.11;61.33;101098.34;5098233;27;45515;-81
2022/05/20 07:02:38;;;;;;;;;5.00;5.00;;;;;21.07;61.89;101080.72;5095727;27;45490;-82
2022/05/20 07:05:04;;;;;;;;;6.00;5.75;;;;;21.02;62.05;101040.53;5096158;27;45438;-81
2022/05/20 07:07:31;;;;;;;;;9.00;8.50;;;;;21.09;63.03;101034.53;5096459;27;45538;-81
2022/05/20 07:09:56;;;;;;;;;7.00;6.25;;;;;21.05;63.50;101017.72;5093353;27;45549;-82
2022/05/20 07:12:22;;;;;;;;;6.50;6.50;;;;;21.14;63.45;101024.97;5098392;27;45273;-82
2022/05/20 07:14:47;;;;;;;;;11.50;9.25;;;;;20.98;63.20;100984.13;5095016;27;45390;-82
2022/05/20 07:17:16;;;;;;;;;11.75;11.00;;;;;21.01;63.28;100984.69;5096567;27;46108;-82
2022/05/20 07:19:42;;;;;;;;;10.50;10.00;;;;;21.04;64.15;100976.25;5096692;27;45572;-82
2022/05/20 07:22:08;;;;;;;;;9.00;9.00;;;;;21.15;63.31;100996.88;5094989;27;45455;-82
2022/05/20 07:24:33;;;;;;;;;8.00;8.00;;;;;21.07;63.30;100972.41;5098064;27;45375;-82
2022/05/20 07:26:58;;;;;;;;;9.00;9.00;;;;;21.17;63.93;100994.88;5096593;27;45451;-82
2022/05/20 07:29:24;;;;;;;;;6.50;6.00;;;;;21.17;63.98;101030.09;5096030;27;49620;-82
2022/05/20 07:31:49;;;;;;;;;6.25;6.25;;;;;21.15;63.96;101031.22;5095698;27;45613;-82
2022/05/20 07:34:15;;;;;;;;;7.75;7.75;;;;;21.19;63.80;101029.91;5096131;27;45629;-82
2022/05/20 07:36:40;;;;;;;;;9.75;8.00;;;;;21.12;64.25;101005.31;5095691;27;45574;-82
2022/05/20 07:39:07;;;;;;;;;6.75;6.75;;;;;21.27;64.81;101028.19;5097121;27;45517;-79
2022/05/20 07:41:35;;;;;;;;;11.25;7.50;;;;;21.23;65.55;101039.47;5094690;27;45544;-82
2022/05/20 07:44:01;;;;;;;;;8.00;7.00;;;;;21.25;64.87;101043.72;5095228;27;45554;-82
2022/05/20 07:46:27;;;;;;;;;8.50;8.00;;;;;21.20;64.61;101032.50;5092925;27;46465;-82
2022/05/20 07:48:53;;;;;;;;;7.75;7.75;;;;;21.36;64.98;101071.63;5095865;27;45311;-80
2022/05/20 07:51:22;;;;;;;;;10.25;8.75;;;;;21.25;64.25;101083.50;5096997;27;45512;-79
2022/05/20 07:54:12;;;;;;;;;10.25;8.75;;;;;21.36;64.38;101093.28;5096441;27;45436;-79
2022/05/20 07:56:44;;;;;;;;;8.00;7.00;;;;;21.35;64.94;101107.84;5095427;27;46142;-80
2022/05/20 07:59:16;;;;;;;;;9.50;8.00;;;;;21.44;64.24;101186.41;5095417;27;45256;-82
2022/05/20 08:01:47;;;;;;;;;8.50;7.00;;;;;21.37;64.47;101182.53;5095432;27;45495;-81
2022/05/20 08:07:10;;;;;;;;;9.75;8.25;;;;;21.32;65.77;101159.59;5081185;27;45422;-81
2022/05/20 08:09:36;;;;;;;;;11.50;11.25;;;;;21.26;65.17;101067.09;5096223;27;45291;-81
2022/05/20 08:12:02;;;;;;;;;9.50;9.50;;;;;21.33;66.30;101089.00;5095545;27;45545;-81
2022/05/20 08:14:28;;;;;;;;;12.00;12.00;;;;;21.24;66.58;101074.53;5092894;27;45611;-81
2022/05/20 08:16:57;;;;;;;;;13.00;10.75;;;;;21.42;66.31;101107.13;5095423;27;46164;-81
2022/05/20 08:19:22;;;;;;;;;12.25;11.50;;;;;21.31;66.33;101077.50;5095525;27;45440;-81
2022/05/20 08:21:48;;;;;;;;;13.75;10.75;;;;;21.49;66.26;101099.28;5095762;27;45623;-81
2022/05/20 08:24:13;;;;;;;;;12.25;11.50;;;;;21.51;66.81;101102.69;5097388;27;45455;-81
2022/05/20 08:26:38;;;;;;;;;11.25;11.25;;;;;21.42;66.96;101098.16;5095152;27;51853;-81
2022/05/20 08:29:04;;;;;;;;;11.75;11.75;;;;;21.53;66.30;101097.09;5095486;27;45464;-81
2022/05/20 08:31:29;;;;;;;;;11.00;10.00;;;;;21.48;66.64;101065.06;5092308;27;45465;-81
2022/05/20 08:33:55;;;;;;;;;8.00;8.00;;;;;21.58;67.43;101092.97;5095470;27;45491;-82
2022/05/20 08:36:20;;;;;;;;;14.25;11.00;;;;;21.57;66.79;101084.97;5097184;27;46459;-81
2022/05/20 08:38:49;;;;;;;;;11.00;10.00;;;;;21.55;67.08;101079.72;5093453;27;45482;-81
2022/05/20 08:41:26;;;;;;;;;13.50;10.75;;;;;21.57;67.13;101085.81;5088566;27;45452;-82
2022/05/20 08:43:51;;;;;;;;;10.00;10.00;;;;;21.70;66.90;101129.69;5085335;27;45275;-81
2022/05/20 08:46:19;;;;;;;;;12.25;12.25;;;;;21.73;66.95;101169.19;5095103;27;46023;-81
2022/05/20 08:48:46;;;;;;;;;11.25;11.25;;;;;21.73;66.19;101227.97;5095383;27;45559;-81
2022/05/20 08:51:11;;;;;;;;;14.00;14.00;;;;;21.67;65.98;101223.97;5096248;27;45355;-81
2022/05/20 08:53:44;;;;;;;;;15.25;13.25;;;;;21.64;66.10;101263.06;5094382;27;45491;-81
2022/05/20 08:56:13;;;;;;;;;18.75;17.00;;;;;21.64;66.10;101271.19;5093600;27;47888;-81
2022/05/20 08:58:49;;;;;;;;;18.75;15.75;;;;;21.51;66.12;101113.53;5094973;27;45569;-83
2022/05/20 09:01:33;;;;;;;;;16.00;15.50;;;;;21.66;67.39;101111.19;5095050;27;45392;-83
2022/05/20 09:04:00;;;;;;;;;18.00;16.00;;;;;21.63;68.45;101092.53;5092871;27;45620;-82
2022/05/20 09:06:27;;;;;;;;;16.25;15.50;;;;;21.75;68.94;101129.25;5092949;27;46089;-82
2022/05/20 09:09:10;;;;;;;;;15.50;15.50;;;;;21.79;67.89;101133.38;5094231;27;45483;-83
2022/05/20 09:11:36;;;;;;;;;16.50;15.50;;;;;21.86;68.30;101125.47;5093135;27;45544;-82
2022/05/20 09:17:21;;;;;;;;;16.50;15.75;;;;;22.02;68.90;101119.41;5094382;27;45810;-82
2022/05/20 09:20:04;;;;;;;;;16.75;15.25;;;;;22.10;68.90;101120.38;5094605;27;45490;-82
2022/05/20 09:22:38;;;;;;;;;13.00;13.00;;;;;22.18;69.26;101116.91;5091205;27;47467;-82
2022/05/20 09:25:20;;;;;;;;;17.00;16.00;;;;;22.25;69.23;101111.75;5079524;27;45440;-82
2022/05/20 09:27:46;;;;;;;;;15.00;15.00;;;;;22.24;69.34;101097.31;5094112;27;45577;-83
2022/05/20 09:30:14;;;;;;;;;19.25;18.50;;;;;22.25;68.40;101080.06;5095728;27;45842;-84
2022/05/20 09:32:59;;;;;;;;;16.25;15.50;;;;;22.46;68.25;101076.16;5093649;27;45434;-84
2022/05/20 09:35:40;;;;;;;;;20.50;18.50;;;;;22.51;68.71;101055.72;5091076;27;45524;-84
2022/05/20 09:38:30;;;;;;;;;17.75;17.00;;;;;22.46;68.54;101055.31;5092854;27;46161;-84
2022/05/20 09:40:55;;;;;;;;;15.50;14.00;;;;;22.53;68.21;101093.53;5091288;27;45477;-86
2022/05/20 09:43:22;;;;;;;;;18.00;15.50;;;;;22.59;66.98;101190.63;5109492;27;45562;-84
2022/05/20 09:45:50;;;;;;;;;17.75;17.25;;;;;22.58;66.59;101269.47;5092343;27;45611;-81
2022/05/20 09:48:36;;;;;;;;;18.75;17.50;;;;;22.55;67.14;101267.91;5095518;27;45435;-83
2022/05/20 09:51:14;;;;;;;;;17.75;17.25;;;;;22.53;67.20;101161.38;5094216;27;45371;-82
2022/05/20 09:53:42;;;;;;;;;23.00;19.50;;;;;22.48;67.41;100977.31;5101553;27;45431;-84
2022/05/20 09:56:18;;;;;;;;;19.25;19.25;;;;;22.44;68.40;100947.97;5100721;27;45470;-84
2022/05/20 09:59:21;;;;;;;;;18.50;17.00;;;;;22.53;69.21;101012.13;5092197;27;46538;-84
2022/05/20 10:02:22;;;;;;;;;21.00;18.50;;;;;22.57;68.17;101047.97;5094030;27;45557;-84
2022/05/20 10:05:09;;;;;;;;;20.50;16.00;;;;;22.71;68.38;101034.66;5093461;27;45552;-84
2022/05/20 10:08:16;;;;;;;;;16.00;14.75;;;;;22.81;68.42;101004.72;5093912;27;45368;-84
2022/05/20 10:11:06;;;;;;;;;18.25;17.50;;;;;22.88;68.37;101008.50;5088080;27;45508;-83
2022/05/20 10:13:53;;;;;;;;;23.50;22.25;;;;;22.85;66.95;101011.53;5100351;27;45584;-83
2022/05/20 10:16:24;;;;;;;;;21.25;19.00;;;;;22.93;67.42;101025.16;5101760;27;45491;-83
2022/05/20 10:19:01;;;;;;;;;23.75;19.75;;;;;22.89;66.73;101026.47;5093963;27;47929;-85
2022/05/20 10:21:48;;;;;;;;;20.50;19.25;;;;;22.92;66.00;101045.19;5091162;27;46659;-85
2022/05/20 10:24:41;;;;;;;;;18.50;18.00;;;;;22.92;65.25;101034.31;5093181;27;45449;-85
2022/05/20 10:27:27;;;;;;;;;18.50;18.25;;;;;22.90;66.72;101036.34;5095543;27;45281;-84
2022/05/20 10:32:43;;;;;;;;;18.75;18.25;;;;;22.86;67.15;101053.94;5093352;27;45453;-85
2022/05/20 10:35:13;;;;;;;;;20.00;18.75;;;;;22.86;66.86;101061.25;5092932;27;45326;-85
2022/05/20 10:38:00;;;;;;;;;20.00;18.50;;;;;22.86;67.36;101058.53;5093475;27;45401;-85
2022/05/20 10:40:40;;;;;;;;;19.75;17.75;;;;;22.86;67.78;101050.38;5093725;27;45333;-85
2022/05/20 10:49:40;;;;;;;;;25.25;23.00;;;;;22.89;67.29;101012.91;5079278;27;45292;-84
2022/05/20 10:52:20;;;;;;;;;23.00;20.75;;;;;22.90;67.79;100989.34;5075770;27;45559;-85
2022/05/20 10:55:16;;;;;;;;;23.75;20.50;;;;;22.96;67.57;100986.81;5093356;27;45389;-85
2022/05/20 10:58:17;;;;;;;;;20.75;20.00;;;;;23.10;67.87;100970.97;5090354;27;45672;-85
2022/05/20 11:00:52;;;;;;;;;20.75;19.50;;;;;23.20;67.36;100979.84;5091790;27;45422;-85
2022/05/20 11:03:38;;;;;;;;;24.50;24.50;;;;;23.39;66.84;100997.75;5093864;27;45342;-85
2022/05/20 11:06:31;;;;;;;;;26.00;22.25;;;;;23.51;66.32;101006.47;5097772;27;45928;-84
2022/05/20 11:09:13;;;;;;;;;24.00;22.75;;;;;23.62;66.15;101011.63;5095939;27;45251;-84
2022/05/20 11:12:03;;;;;;;;;28.50;22.75;;;;;23.72;65.74;101015.03;5096883;27;45574;-84
2022/05/20 11:14:43;;;;;;;;;27.25;24.50;;;;;23.86;65.65;101031.75;5096743;27;45223;-84
2022/05/20 11:17:42;;;;;;;;;26.25;25.00;;;;;23.96;65.09;101043.34;5096268;27;45437;-84
2022/05/20 11:20:28;;;;;;;;;24.50;24.50;;;;;24.09;65.67;101062.75;5095129;27;45482;-84
2022/05/20 11:23:31;;;;;;;;;27.75;27.25;;;;;24.19;64.60;101073.47;5096635;27;45373;-83
2022/05/20 11:26:15;;;;;;;;;31.00;29.50;;;;;24.27;64.08;101080.78;5096553;27;45302;-84
2022/05/20 11:29:18;;;;;;;;;31.25;30.25;;;;;24.32;63.41;101084.75;5096394;27;45524;-84
2022/05/20 11:32:00;;;;;;;;;37.25;32.25;;;;;24.35;63.56;101098.00;5094667;27;45519;-84
2022/05/20 11:35:01;;;;;;;;;30.75;28.75;;;;;24.40;63.44;101109.22;5095187;27;45490;-83
2022/05/20 11:37:44;;;;;;;;;33.00;30.00;;;;;24.41;63.46;101097.34;5084205;27;45423;-83
2022/05/20 11:40:38;;;;;;;;;28.00;26.50;;;;;24.37;63.05;101081.53;5081972;27;46927;-83
2022/05/20 11:43:46;;;;;;;;;31.00;26.50;;;;;24.47;63.10;101082.22;5081220;27;45398;-83
2022/05/20 11:46:32;;;;;;;;;40.25;33.25;;;;;24.48;63.45;101074.91;5081746;27;45440;-83
2022/05/20 11:49:10;;;;;;;;;25.25;24.75;;;;;24.56;62.95;101086.66;5094159;27;45557;-83
2022/05/20 11:51:51;;;;;;;;;27.75;27.25;;;;;24.63;62.87;101075.97;5094719;27;46235;-83
2022/05/20 11:54:39;;;;;;;;;30.00;29.25;;;;;24.71;62.91;101069.66;5095850;27;45374;-83
2022/05/20 11:57:10;;;;;;;;;27.50;27.00;;;;;24.76;63.19;101068.13;5095757;27;45328;-83
2022/05/20 11:59:47;;;;;;;;;21.00;21.00;;;;;24.92;62.61;101045.47;5094436;27;45529;-83
2022/05/20 12:02:14;;;;;;;;;18.00;18.00;;;;;24.97;62.46;101029.47;5095684;27;45507;-83
2022/05/20 12:04:40;;;;;;;;;18.50;17.50;;;;;25.07;61.83;101029.25;5093288;27;45464;-84
2022/05/20 12:07:10;;;;;;;;;18.00;16.25;;;;;25.17;60.77;101029.94;5095267;27;45346;-84
2022/05/20 12:09:49;;;;;;;;;15.25;13.25;;;;;25.11;59.07;101013.41;5096535;27;45515;-86
2022/05/20 12:12:17;;;;;;;;;14.25;12.50;;;;;25.19;59.40;101022.44;5095740;27;45734;-85